sensor_id;sensor_type;location;lat;lon;timestamp;P1;durP1;ratioP1;P2;durP2;ratioP2
76631;SDS011;65526;48.578;-4.520;2023-07-28T00:01:43;4.13;;;1.10;;
76631;SDS011;65526;48.578;-4.520;2023-07-28T00:04:10;4.13;;;1.55;;
76631;SDS011;65526;48.578;-4.520;2023-07-28T00:06:36;2.28;;;1.38;;
76631;SDS011;65526;48.578;-4.520;2023-07-28T00:09:02;6.97;;;1.40;;
76631;SDS011;65526;48.578;-4.520;2023-07-28T00:11:29;3.47;;;1.42;;
76631;SDS011;65526;48.578;-4.520;2023-07-28T00:13:55;6.82;;;1.75;;
76631;SDS011;65526;48.578;-4.520;2023-07-28T00:16:22;6.18;;;1.90;;
76631;SDS011;65526;48.578;-4.520;2023-07-28T00:18:48;6.57;;;2.42;;
76631;SDS011;65526;48.578;-4.520;2023-07-28T00:21:14;9.07;;;2.75;;
76631;SDS011;65526;48.578;-4.520;2023-07-28T00:23:41;4.63;;;2.38;;
76631;SDS011;65526;48.578;-4.520;2023-07-28T00:26:07;7.53;;;2.30;;
76631;SDS011;65526;48.578;-4.520;2023-07-28T00:28:34;3.33;;;1.90;;
76631;SDS011;65526;48.578;-4.520;2023-07-28T00:31:00;3.50;;;2.30;;
76631;SDS011;65526;48.578;-4.520;2023-07-28T00:33:26;7.65;;;2.17;;
76631;SDS011;65526;48.578;-4.520;2023-07-28T00:35:53;4.90;;;2.50;;
76631;SDS011;65526;48.578;-4.520;2023-07-28T00:38:19;7.25;;;3.30;;
76631;SDS011;65526;48.578;-4.520;2023-07-28T00:40:46;9.95;;;3.42;;
76631;SDS011;65526;48.578;-4.520;2023-07-28T00:43:12;7.30;;;2.20;;
76631;SDS011;65526;48.578;-4.520;2023-07-28T00:45:39;7.00;;;2.50;;
76631;SDS011;65526;48.578;-4.520;2023-07-28T00:48:07;4.95;;;2.40;;
76631;SDS011;65526;48.578;-4.520;2023-07-28T00:50:39;4.70;;;2.70;;
76631;SDS011;65526;48.578;-4.520;2023-07-28T00:53:12;11.90;;;2.85;;
76631;SDS011;65526;48.578;-4.520;2023-07-28T00:55:38;6.28;;;2.45;;
76631;SDS011;65526;48.578;-4.520;2023-07-28T00:58:04;5.90;;;2.28;;
76631;SDS011;65526;48.578;-4.520;2023-07-28T01:00:31;6.78;;;2.60;;
76631;SDS011;65526;48.578;-4.520;2023-07-28T01:02:57;9.27;;;2.65;;
76631;SDS011;65526;48.578;-4.520;2023-07-28T01:05:26;7.32;;;1.95;;
76631;SDS011;65526;48.578;-4.520;2023-07-28T01:08:02;4.68;;;2.15;;
76631;SDS011;65526;48.578;-4.520;2023-07-28T01:10:35;16.98;;;2.85;;
76631;SDS011;65526;48.578;-4.520;2023-07-28T01:13:03;4.45;;;2.00;;
76631;SDS011;65526;48.578;-4.520;2023-07-28T01:15:30;4.28;;;1.73;;
76631;SDS011;65526;48.578;-4.520;2023-07-28T01:17:56;6.25;;;1.70;;
76631;SDS011;65526;48.578;-4.520;2023-07-28T01:20:22;6.80;;;2.20;;
76631;SDS011;65526;48.578;-4.520;2023-07-28T01:26:11;6.50;;;1.50;;
76631;SDS011;65526;48.578;-4.520;2023-07-28T01:28:41;4.65;;;1.80;;
76631;SDS011;65526;48.578;-4.520;2023-07-28T01:31:09;4.95;;;1.77;;
76631;SDS011;65526;48.578;-4.520;2023-07-28T01:33:35;10.63;;;2.00;;
76631;SDS011;65526;48.578;-4.520;2023-07-28T01:36:02;11.05;;;1.92;;
76631;SDS011;65526;48.578;-4.520;2023-07-28T01:38:29;9.05;;;2.10;;
76631;SDS011;65526;48.578;-4.520;2023-07-28T01:40:55;6.55;;;1.95;;
76631;SDS011;65526;48.578;-4.520;2023-07-28T01:43:22;6.68;;;1.95;;
76631;SDS011;65526;48.578;-4.520;2023-07-28T01:45:48;3.75;;;1.70;;
76631;SDS011;65526;48.578;-4.520;2023-07-28T01:48:14;7.90;;;2.30;;
76631;SDS011;65526;48.578;-4.520;2023-07-28T01:50:41;8.70;;;2.25;;
76631;SDS011;65526;48.578;-4.520;2023-07-28T01:53:07;6.22;;;2.00;;
76631;SDS011;65526;48.578;-4.520;2023-07-28T01:55:34;6.07;;;1.80;;
76631;SDS011;65526;48.578;-4.520;2023-07-28T01:58:01;5.13;;;1.98;;
76631;SDS011;65526;48.578;-4.520;2023-07-28T02:00:29;5.38;;;2.03;;
76631;SDS011;65526;48.578;-4.520;2023-07-28T02:02:55;2.88;;;1.58;;
76631;SDS011;65526;48.578;-4.520;2023-07-28T02:05:24;5.32;;;2.17;;
76631;SDS011;65526;48.578;-4.520;2023-07-28T02:07:50;5.40;;;1.95;;
76631;SDS011;65526;48.578;-4.520;2023-07-28T02:10:16;6.07;;;2.20;;
76631;SDS011;65526;48.578;-4.520;2023-07-28T02:12:43;5.93;;;2.47;;
76631;SDS011;65526;48.578;-4.520;2023-07-28T02:15:10;8.90;;;2.80;;
76631;SDS011;65526;48.578;-4.520;2023-07-28T02:17:36;6.97;;;2.33;;
76631;SDS011;65526;48.578;-4.520;2023-07-28T02:20:02;4.03;;;2.08;;
76631;SDS011;65526;48.578;-4.520;2023-07-28T02:22:29;3.03;;;2.00;;
76631;SDS011;65526;48.578;-4.520;2023-07-28T02:24:56;3.85;;;2.28;;
76631;SDS011;65526;48.578;-4.520;2023-07-28T02:27:22;3.55;;;1.90;;
76631;SDS011;65526;48.578;-4.520;2023-07-28T02:29:48;4.85;;;1.98;;
76631;SDS011;65526;48.578;-4.520;2023-07-28T02:32:15;4.45;;;2.10;;
76631;SDS011;65526;48.578;-4.520;2023-07-28T02:34:41;6.93;;;1.90;;
76631;SDS011;65526;48.578;-4.520;2023-07-28T02:37:07;8.35;;;2.28;;
76631;SDS011;65526;48.578;-4.520;2023-07-28T02:39:34;8.77;;;2.25;;
76631;SDS011;65526;48.578;-4.520;2023-07-28T02:42:00;6.72;;;2.05;;
76631;SDS011;65526;48.578;-4.520;2023-07-28T02:44:26;3.72;;;1.88;;
76631;SDS011;65526;48.578;-4.520;2023-07-28T02:46:53;3.88;;;2.00;;
76631;SDS011;65526;48.578;-4.520;2023-07-28T02:49:19;3.75;;;1.80;;
76631;SDS011;65526;48.578;-4.520;2023-07-28T02:51:45;7.47;;;1.75;;
76631;SDS011;65526;48.578;-4.520;2023-07-28T02:54:12;3.88;;;1.58;;
76631;SDS011;65526;48.578;-4.520;2023-07-28T02:56:38;7.70;;;1.60;;
76631;SDS011;65526;48.578;-4.520;2023-07-28T02:59:09;4.32;;;2.00;;
76631;SDS011;65526;48.578;-4.520;2023-07-28T03:01:36;5.80;;;1.63;;
76631;SDS011;65526;48.578;-4.520;2023-07-28T03:04:02;4.78;;;1.95;;
76631;SDS011;65526;48.578;-4.520;2023-07-28T03:06:41;8.60;;;1.90;;
76631;SDS011;65526;48.578;-4.520;2023-07-28T03:09:07;5.95;;;1.73;;
76631;SDS011;65526;48.578;-4.520;2023-07-28T03:11:47;3.40;;;1.83;;
76631;SDS011;65526;48.578;-4.520;2023-07-28T03:14:13;3.90;;;1.65;;
76631;SDS011;65526;48.578;-4.520;2023-07-28T03:16:40;3.10;;;1.50;;
76631;SDS011;65526;48.578;-4.520;2023-07-28T03:19:08;7.18;;;1.65;;
76631;SDS011;65526;48.578;-4.520;2023-07-28T03:21:34;3.55;;;1.92;;
76631;SDS011;65526;48.578;-4.520;2023-07-28T03:24:00;3.13;;;1.80;;
76631;SDS011;65526;48.578;-4.520;2023-07-28T03:26:27;8.40;;;2.45;;
76631;SDS011;65526;48.578;-4.520;2023-07-28T03:28:54;4.43;;;2.08;;
76631;SDS011;65526;48.578;-4.520;2023-07-28T03:31:20;2.95;;;2.10;;
76631;SDS011;65526;48.578;-4.520;2023-07-28T03:33:47;4.88;;;1.73;;
76631;SDS011;65526;48.578;-4.520;2023-07-28T03:36:13;4.50;;;1.90;;
76631;SDS011;65526;48.578;-4.520;2023-07-28T03:38:39;5.32;;;2.13;;
76631;SDS011;65526;48.578;-4.520;2023-07-28T03:41:06;4.47;;;2.20;;
76631;SDS011;65526;48.578;-4.520;2023-07-28T03:43:33;4.38;;;1.98;;
76631;SDS011;65526;48.578;-4.520;2023-07-28T03:45:59;4.07;;;1.80;;
76631;SDS011;65526;48.578;-4.520;2023-07-28T03:48:26;4.07;;;1.92;;
76631;SDS011;65526;48.578;-4.520;2023-07-28T03:50:52;5.15;;;1.90;;
76631;SDS011;65526;48.578;-4.520;2023-07-28T03:53:18;6.10;;;1.98;;
76631;SDS011;65526;48.578;-4.520;2023-07-28T03:55:45;4.10;;;1.90;;
76631;SDS011;65526;48.578;-4.520;2023-07-28T03:58:11;5.60;;;2.38;;
76631;SDS011;65526;48.578;-4.520;2023-07-28T04:00:37;9.40;;;2.53;;
76631;SDS011;65526;48.578;-4.520;2023-07-28T04:03:04;5.95;;;2.45;;
76631;SDS011;65526;48.578;-4.520;2023-07-28T04:05:30;4.90;;;2.40;;
76631;SDS011;65526;48.578;-4.520;2023-07-28T04:07:57;6.40;;;2.78;;
76631;SDS011;65526;48.578;-4.520;2023-07-28T04:10:23;6.70;;;3.05;;
76631;SDS011;65526;48.578;-4.520;2023-07-28T04:12:50;6.50;;;3.42;;
76631;SDS011;65526;48.578;-4.520;2023-07-28T04:15:16;7.75;;;3.30;;
76631;SDS011;65526;48.578;-4.520;2023-07-28T04:17:42;11.07;;;3.53;;
76631;SDS011;65526;48.578;-4.520;2023-07-28T04:20:09;9.30;;;3.80;;
76631;SDS011;65526;48.578;-4.520;2023-07-28T04:22:36;11.40;;;4.05;;
76631;SDS011;65526;48.578;-4.520;2023-07-28T04:25:02;6.65;;;2.90;;
76631;SDS011;65526;48.578;-4.520;2023-07-28T04:27:30;7.20;;;3.30;;
76631;SDS011;65526;48.578;-4.520;2023-07-28T04:29:59;7.85;;;2.97;;
76631;SDS011;65526;48.578;-4.520;2023-07-28T04:32:26;6.38;;;2.90;;
76631;SDS011;65526;48.578;-4.520;2023-07-28T04:34:55;7.40;;;2.55;;
76631;SDS011;65526;48.578;-4.520;2023-07-28T04:37:40;8.00;;;3.15;;
76631;SDS011;65526;48.578;-4.520;2023-07-28T04:40:07;12.95;;;3.22;;
76631;SDS011;65526;48.578;-4.520;2023-07-28T04:42:37;5.95;;;2.75;;
76631;SDS011;65526;48.578;-4.520;2023-07-28T04:45:05;5.85;;;2.67;;
76631;SDS011;65526;48.578;-4.520;2023-07-28T04:47:32;5.95;;;2.90;;
76631;SDS011;65526;48.578;-4.520;2023-07-28T04:49:59;6.82;;;2.75;;
76631;SDS011;65526;48.578;-4.520;2023-07-28T04:52:44;7.30;;;2.85;;
76631;SDS011;65526;48.578;-4.520;2023-07-28T04:55:43;12.20;;;3.28;;
76631;SDS011;65526;48.578;-4.520;2023-07-28T04:58:09;10.27;;;3.42;;
76631;SDS011;65526;48.578;-4.520;2023-07-28T05:03:11;8.85;;;3.58;;
76631;SDS011;65526;48.578;-4.520;2023-07-28T05:05:45;10.57;;;4.13;;
76631;SDS011;65526;48.578;-4.520;2023-07-28T05:08:13;10.60;;;3.80;;
76631;SDS011;65526;48.578;-4.520;2023-07-28T05:10:40;9.93;;;3.80;;
76631;SDS011;65526;48.578;-4.520;2023-07-28T05:13:11;9.73;;;4.00;;
76631;SDS011;65526;48.578;-4.520;2023-07-28T05:15:41;9.98;;;3.60;;
76631;SDS011;65526;48.578;-4.520;2023-07-28T05:18:12;9.20;;;3.58;;
76631;SDS011;65526;48.578;-4.520;2023-07-28T05:20:49;8.57;;;4.03;;
76631;SDS011;65526;48.578;-4.520;2023-07-28T05:23:16;9.65;;;3.90;;
76631;SDS011;65526;48.578;-4.520;2023-07-28T05:25:42;13.77;;;4.10;;
76631;SDS011;65526;48.578;-4.520;2023-07-28T05:28:09;9.95;;;4.03;;
76631;SDS011;65526;48.578;-4.520;2023-07-28T05:30:38;10.63;;;4.45;;
76631;SDS011;65526;48.578;-4.520;2023-07-28T05:33:04;12.27;;;4.25;;
76631;SDS011;65526;48.578;-4.520;2023-07-28T05:35:43;10.18;;;4.25;;
76631;SDS011;65526;48.578;-4.520;2023-07-28T05:38:09;10.38;;;4.25;;
76631;SDS011;65526;48.578;-4.520;2023-07-28T05:40:36;10.73;;;4.22;;
76631;SDS011;65526;48.578;-4.520;2023-07-28T05:43:02;9.50;;;4.18;;
76631;SDS011;65526;48.578;-4.520;2023-07-28T05:45:29;12.55;;;4.82;;
76631;SDS011;65526;48.578;-4.520;2023-07-28T05:47:55;10.95;;;4.70;;
76631;SDS011;65526;48.578;-4.520;2023-07-28T05:50:24;12.15;;;4.90;;
76631;SDS011;65526;48.578;-4.520;2023-07-28T05:52:50;11.25;;;5.40;;
76631;SDS011;65526;48.578;-4.520;2023-07-28T05:55:16;10.55;;;5.45;;
76631;SDS011;65526;48.578;-4.520;2023-07-28T05:57:43;20.65;;;5.97;;
76631;SDS011;65526;48.578;-4.520;2023-07-28T06:00:10;11.43;;;6.05;;
76631;SDS011;65526;48.578;-4.520;2023-07-28T06:02:40;17.08;;;5.70;;
76631;SDS011;65526;48.578;-4.520;2023-07-28T06:07:35;9.73;;;4.32;;
76631;SDS011;65526;48.578;-4.520;2023-07-28T06:10:02;12.27;;;5.05;;
76631;SDS011;65526;48.578;-4.520;2023-07-28T06:12:28;13.18;;;4.15;;
76631;SDS011;65526;48.578;-4.520;2023-07-28T06:14:55;14.10;;;4.25;;
76631;SDS011;65526;48.578;-4.520;2023-07-28T06:17:22;10.98;;;4.35;;
76631;SDS011;65526;48.578;-4.520;2023-07-28T06:19:48;8.32;;;4.15;;
76631;SDS011;65526;48.578;-4.520;2023-07-28T06:22:15;9.55;;;4.43;;
76631;SDS011;65526;48.578;-4.520;2023-07-28T06:24:43;10.65;;;4.22;;
76631;SDS011;65526;48.578;-4.520;2023-07-28T06:27:10;9.90;;;4.35;;
76631;SDS011;65526;48.578;-4.520;2023-07-28T06:29:38;5.75;;;4.40;;
76631;SDS011;65526;48.578;-4.520;2023-07-28T06:32:05;8.43;;;4.38;;
76631;SDS011;65526;48.578;-4.520;2023-07-28T06:34:32;7.07;;;3.58;;
76631;SDS011;65526;48.578;-4.520;2023-07-28T06:36:58;8.88;;;4.10;;
76631;SDS011;65526;48.578;-4.520;2023-07-28T06:39:25;7.20;;;3.40;;
76631;SDS011;65526;48.578;-4.520;2023-07-28T06:41:51;5.97;;;3.63;;
76631;SDS011;65526;48.578;-4.520;2023-07-28T06:44:18;7.13;;;3.78;;
76631;SDS011;65526;48.578;-4.520;2023-07-28T06:46:45;6.70;;;3.53;;
76631;SDS011;65526;48.578;-4.520;2023-07-28T06:49:13;7.10;;;3.45;;
76631;SDS011;65526;48.578;-4.520;2023-07-28T06:51:39;7.20;;;3.58;;
76631;SDS011;65526;48.578;-4.520;2023-07-28T06:54:06;8.93;;;4.32;;
76631;SDS011;65526;48.578;-4.520;2023-07-28T06:56:37;10.18;;;4.20;;
76631;SDS011;65526;48.578;-4.520;2023-07-28T06:59:05;8.45;;;3.95;;
76631;SDS011;65526;48.578;-4.520;2023-07-28T07:01:33;7.40;;;3.75;;
76631;SDS011;65526;48.578;-4.520;2023-07-28T07:04:00;9.32;;;4.20;;
76631;SDS011;65526;48.578;-4.520;2023-07-28T07:06:27;8.63;;;4.43;;
76631;SDS011;65526;48.578;-4.520;2023-07-28T07:08:53;10.23;;;3.92;;
76631;SDS011;65526;48.578;-4.520;2023-07-28T07:11:19;9.65;;;3.30;;
76631;SDS011;65526;48.578;-4.520;2023-07-28T07:13:46;8.00;;;3.15;;
76631;SDS011;65526;48.578;-4.520;2023-07-28T07:16:16;8.55;;;2.97;;
76631;SDS011;65526;48.578;-4.520;2023-07-28T07:18:43;8.75;;;3.33;;
76631;SDS011;65526;48.578;-4.520;2023-07-28T07:21:10;4.75;;;3.13;;
76631;SDS011;65526;48.578;-4.520;2023-07-28T07:23:36;6.70;;;2.80;;
76631;SDS011;65526;48.578;-4.520;2023-07-28T07:26:03;6.78;;;2.85;;
76631;SDS011;65526;48.578;-4.520;2023-07-28T07:28:30;6.50;;;3.13;;
76631;SDS011;65526;48.578;-4.520;2023-07-28T07:30:56;6.15;;;2.70;;
76631;SDS011;65526;48.578;-4.520;2023-07-28T07:33:23;3.08;;;2.45;;
76631;SDS011;65526;48.578;-4.520;2023-07-28T07:35:50;5.90;;;2.65;;
76631;SDS011;65526;48.578;-4.520;2023-07-28T07:38:16;4.25;;;2.50;;
76631;SDS011;65526;48.578;-4.520;2023-07-28T07:40:46;8.25;;;2.60;;
76631;SDS011;65526;48.578;-4.520;2023-07-28T07:43:14;6.18;;;2.92;;
76631;SDS011;65526;48.578;-4.520;2023-07-28T07:45:46;6.45;;;2.92;;
76631;SDS011;65526;48.578;-4.520;2023-07-28T07:48:13;7.80;;;3.13;;
76631;SDS011;65526;48.578;-4.520;2023-07-28T07:50:39;6.00;;;2.72;;
76631;SDS011;65526;48.578;-4.520;2023-07-28T07:53:06;10.48;;;2.72;;
76631;SDS011;65526;48.578;-4.520;2023-07-28T07:55:32;6.63;;;2.38;;
76631;SDS011;65526;48.578;-4.520;2023-07-28T07:57:58;6.47;;;2.63;;
76631;SDS011;65526;48.578;-4.520;2023-07-28T08:00:25;5.38;;;2.15;;
76631;SDS011;65526;48.578;-4.520;2023-07-28T08:02:51;7.40;;;2.58;;
76631;SDS011;65526;48.578;-4.520;2023-07-28T08:05:18;8.60;;;2.78;;
76631;SDS011;65526;48.578;-4.520;2023-07-28T08:07:44;4.18;;;2.22;;
76631;SDS011;65526;48.578;-4.520;2023-07-28T08:10:10;5.88;;;1.85;;
76631;SDS011;65526;48.578;-4.520;2023-07-28T08:12:37;3.67;;;1.73;;
76631;SDS011;65526;48.578;-4.520;2023-07-28T08:15:03;3.92;;;2.40;;
76631;SDS011;65526;48.578;-4.520;2023-07-28T08:17:30;9.50;;;1.88;;
76631;SDS011;65526;48.578;-4.520;2023-07-28T08:19:56;5.25;;;2.08;;
76631;SDS011;65526;48.578;-4.520;2023-07-28T08:22:23;3.90;;;2.22;;
76631;SDS011;65526;48.578;-4.520;2023-07-28T08:24:49;3.95;;;2.70;;
76631;SDS011;65526;48.578;-4.520;2023-07-28T08:27:15;5.35;;;3.00;;
76631;SDS011;65526;48.578;-4.520;2023-07-28T08:29:42;6.75;;;2.25;;
76631;SDS011;65526;48.578;-4.520;2023-07-28T08:32:08;6.32;;;2.20;;
76631;SDS011;65526;48.578;-4.520;2023-07-28T08:34:35;7.88;;;2.17;;
76631;SDS011;65526;48.578;-4.520;2023-07-28T08:37:01;2.83;;;1.75;;
76631;SDS011;65526;48.578;-4.520;2023-07-28T08:39:27;5.20;;;2.28;;
76631;SDS011;65526;48.578;-4.520;2023-07-28T08:41:58;6.55;;;2.45;;
76631;SDS011;65526;48.578;-4.520;2023-07-28T08:44:26;4.18;;;2.30;;
76631;SDS011;65526;48.578;-4.520;2023-07-28T08:46:56;4.00;;;1.80;;
76631;SDS011;65526;48.578;-4.520;2023-07-28T08:49:22;3.33;;;1.77;;
76631;SDS011;65526;48.578;-4.520;2023-07-28T08:51:49;2.90;;;1.67;;
76631;SDS011;65526;48.578;-4.520;2023-07-28T08:54:16;2.35;;;1.48;;
76631;SDS011;65526;48.578;-4.520;2023-07-28T08:56:43;3.15;;;1.70;;
76631;SDS011;65526;48.578;-4.520;2023-07-28T08:59:09;5.38;;;1.63;;
76631;SDS011;65526;48.578;-4.520;2023-07-28T09:01:39;3.67;;;1.63;;
76631;SDS011;65526;48.578;-4.520;2023-07-28T09:04:09;2.55;;;1.38;;
76631;SDS011;65526;48.578;-4.520;2023-07-28T09:06:36;3.38;;;1.77;;
76631;SDS011;65526;48.578;-4.520;2023-07-28T09:09:06;3.30;;;1.85;;
76631;SDS011;65526;48.578;-4.520;2023-07-28T09:11:33;2.72;;;1.50;;
76631;SDS011;65526;48.578;-4.520;2023-07-28T09:13:59;2.95;;;1.65;;
76631;SDS011;65526;48.578;-4.520;2023-07-28T09:16:26;1.60;;;1.33;;
76631;SDS011;65526;48.578;-4.520;2023-07-28T09:19:05;2.47;;;1.67;;
76631;SDS011;65526;48.578;-4.520;2023-07-28T09:21:32;1.90;;;1.15;;
76631;SDS011;65526;48.578;-4.520;2023-07-28T09:23:59;3.70;;;1.35;;
76631;SDS011;65526;48.578;-4.520;2023-07-28T09:26:37;3.22;;;1.42;;
76631;SDS011;65526;48.578;-4.520;2023-07-28T09:29:13;4.80;;;1.80;;
76631;SDS011;65526;48.578;-4.520;2023-07-28T09:31:45;2.83;;;1.40;;
76631;SDS011;65526;48.578;-4.520;2023-07-28T09:34:13;4.82;;;1.40;;
76631;SDS011;65526;48.578;-4.520;2023-07-28T09:36:50;5.63;;;1.75;;
76631;SDS011;65526;48.578;-4.520;2023-07-28T09:39:17;3.30;;;1.38;;
76631;SDS011;65526;48.578;-4.520;2023-07-28T09:41:45;2.75;;;1.23;;
76631;SDS011;65526;48.578;-4.520;2023-07-28T09:44:13;3.90;;;1.33;;
76631;SDS011;65526;48.578;-4.520;2023-07-28T09:46:49;2.65;;;1.25;;
76631;SDS011;65526;48.578;-4.520;2023-07-28T09:49:31;1.40;;;1.30;;
76631;SDS011;65526;48.578;-4.520;2023-07-28T09:52:05;3.60;;;1.30;;
76631;SDS011;65526;48.578;-4.520;2023-07-28T09:54:41;2.08;;;1.40;;
76631;SDS011;65526;48.578;-4.520;2023-07-28T09:57:12;2.83;;;1.40;;
76631;SDS011;65526;48.578;-4.520;2023-07-28T09:59:40;2.70;;;1.35;;
76631;SDS011;65526;48.578;-4.520;2023-07-28T10:02:07;3.33;;;1.42;;
76631;SDS011;65526;48.578;-4.520;2023-07-28T10:04:35;1.23;;;0.98;;
76631;SDS011;65526;48.578;-4.520;2023-07-28T10:07:04;2.83;;;1.48;;
76631;SDS011;65526;48.578;-4.520;2023-07-28T10:09:32;1.85;;;1.33;;
76631;SDS011;65526;48.578;-4.520;2023-07-28T10:11:59;3.40;;;1.27;;
76631;SDS011;65526;48.578;-4.520;2023-07-28T10:14:37;3.20;;;1.08;;
76631;SDS011;65526;48.578;-4.520;2023-07-28T10:17:04;1.95;;;1.20;;
76631;SDS011;65526;48.578;-4.520;2023-07-28T10:19:35;1.50;;;0.90;;
76631;SDS011;65526;48.578;-4.520;2023-07-28T10:22:06;4.03;;;1.48;;
76631;SDS011;65526;48.578;-4.520;2023-07-28T10:24:50;1.90;;;1.10;;
76631;SDS011;65526;48.578;-4.520;2023-07-28T10:30:00;3.17;;;1.38;;
76631;SDS011;65526;48.578;-4.520;2023-07-28T10:32:40;2.60;;;1.30;;
76631;SDS011;65526;48.578;-4.520;2023-07-28T10:35:30;3.42;;;1.40;;
76631;SDS011;65526;48.578;-4.520;2023-07-28T10:37:58;3.15;;;1.20;;
76631;SDS011;65526;48.578;-4.520;2023-07-28T10:40:45;4.50;;;1.50;;
76631;SDS011;65526;48.578;-4.520;2023-07-28T10:43:11;4.07;;;1.00;;
76631;SDS011;65526;48.578;-4.520;2023-07-28T10:45:37;2.55;;;1.40;;
76631;SDS011;65526;48.578;-4.520;2023-07-28T10:48:04;3.60;;;1.20;;
76631;SDS011;65526;48.578;-4.520;2023-07-28T10:50:33;3.33;;;1.10;;
76631;SDS011;65526;48.578;-4.520;2023-07-28T10:53:00;1.67;;;1.05;;
76631;SDS011;65526;48.578;-4.520;2023-07-28T10:55:27;3.38;;;1.15;;
76631;SDS011;65526;48.578;-4.520;2023-07-28T10:57:54;0.95;;;0.85;;
76631;SDS011;65526;48.578;-4.520;2023-07-28T11:00:22;1.90;;;1.00;;
76631;SDS011;65526;48.578;-4.520;2023-07-28T11:02:52;4.63;;;1.23;;
76631;SDS011;65526;48.578;-4.520;2023-07-28T11:05:20;1.80;;;1.10;;
76631;SDS011;65526;48.578;-4.520;2023-07-28T11:07:54;2.55;;;1.10;;
76631;SDS011;65526;48.578;-4.520;2023-07-28T11:10:22;1.63;;;1.10;;
76631;SDS011;65526;48.578;-4.520;2023-07-28T11:12:49;3.17;;;1.23;;
76631;SDS011;65526;48.578;-4.520;2023-07-28T11:15:18;3.17;;;0.93;;
76631;SDS011;65526;48.578;-4.520;2023-07-28T11:17:49;2.08;;;1.40;;
76631;SDS011;65526;48.578;-4.520;2023-07-28T11:20:23;3.22;;;1.10;;
76631;SDS011;65526;48.578;-4.520;2023-07-28T11:22:54;2.35;;;0.90;;
76631;SDS011;65526;48.578;-4.520;2023-07-28T11:25:23;2.33;;;1.02;;
76631;SDS011;65526;48.578;-4.520;2023-07-28T11:27:50;2.70;;;0.55;;
76631;SDS011;65526;48.578;-4.520;2023-07-28T11:30:18;1.23;;;0.80;;
76631;SDS011;65526;48.578;-4.520;2023-07-28T11:32:47;1.63;;;0.75;;
76631;SDS011;65526;48.578;-4.520;2023-07-28T11:35:16;1.08;;;0.90;;
76631;SDS011;65526;48.578;-4.520;2023-07-28T11:37:45;0.73;;;0.50;;
76631;SDS011;65526;48.578;-4.520;2023-07-28T11:40:13;2.13;;;0.90;;
76631;SDS011;65526;48.578;-4.520;2023-07-28T11:43:00;2.17;;;0.65;;
76631;SDS011;65526;48.578;-4.520;2023-07-28T11:45:27;2.65;;;1.02;;
76631;SDS011;65526;48.578;-4.520;2023-07-28T11:47:55;4.20;;;0.80;;
76631;SDS011;65526;48.578;-4.520;2023-07-28T11:50:27;2.38;;;0.90;;
76631;SDS011;65526;48.578;-4.520;2023-07-28T11:55:25;1.80;;;0.65;;
76631;SDS011;65526;48.578;-4.520;2023-07-28T11:57:52;1.27;;;0.88;;
76631;SDS011;65526;48.578;-4.520;2023-07-28T12:00:19;2.05;;;0.73;;
76631;SDS011;65526;48.578;-4.520;2023-07-28T12:03:04;1.52;;;0.70;;
76631;SDS011;65526;48.578;-4.520;2023-07-28T12:05:36;1.80;;;1.17;;
76631;SDS011;65526;48.578;-4.520;2023-07-28T12:08:03;1.65;;;1.05;;
76631;SDS011;65526;48.578;-4.520;2023-07-28T12:10:30;3.03;;;0.90;;
76631;SDS011;65526;48.578;-4.520;2023-07-28T12:12:57;2.83;;;0.68;;
76631;SDS011;65526;48.578;-4.520;2023-07-28T12:15:30;1.55;;;0.70;;
76631;SDS011;65526;48.578;-4.520;2023-07-28T12:20:47;3.47;;;0.80;;
76631;SDS011;65526;48.578;-4.520;2023-07-28T12:23:19;2.53;;;0.80;;
76631;SDS011;65526;48.578;-4.520;2023-07-28T12:25:47;0.90;;;0.63;;
76631;SDS011;65526;48.578;-4.520;2023-07-28T12:28:14;1.80;;;0.50;;
76631;SDS011;65526;48.578;-4.520;2023-07-28T12:30:41;2.40;;;0.60;;
76631;SDS011;65526;48.578;-4.520;2023-07-28T12:33:09;3.08;;;0.50;;
76631;SDS011;65526;48.578;-4.520;2023-07-28T12:35:35;0.40;;;0.35;;
76631;SDS011;65526;48.578;-4.520;2023-07-28T12:38:02;2.28;;;0.45;;
76631;SDS011;65526;48.578;-4.520;2023-07-28T12:40:33;1.25;;;0.60;;
76631;SDS011;65526;48.578;-4.520;2023-07-28T12:43:01;1.33;;;0.47;;
76631;SDS011;65526;48.578;-4.520;2023-07-28T12:45:28;0.80;;;0.50;;
76631;SDS011;65526;48.578;-4.520;2023-07-28T12:47:55;0.95;;;0.52;;
76631;SDS011;65526;48.578;-4.520;2023-07-28T12:50:21;0.85;;;0.60;;
76631;SDS011;65526;48.578;-4.520;2023-07-28T12:52:49;0.50;;;0.40;;
76631;SDS011;65526;48.578;-4.520;2023-07-28T12:55:17;0.88;;;0.40;;
76631;SDS011;65526;48.578;-4.520;2023-07-28T12:57:44;1.10;;;0.40;;
76631;SDS011;65526;48.578;-4.520;2023-07-28T13:00:14;1.48;;;0.38;;
76631;SDS011;65526;48.578;-4.520;2023-07-28T13:02:42;0.85;;;0.40;;
76631;SDS011;65526;48.578;-4.520;2023-07-28T13:05:10;1.08;;;0.30;;
76631;SDS011;65526;48.578;-4.520;2023-07-28T13:07:38;1.83;;;0.47;;
76631;SDS011;65526;48.578;-4.520;2023-07-28T13:10:07;0.93;;;0.52;;
76631;SDS011;65526;48.578;-4.520;2023-07-28T13:12:37;1.20;;;0.43;;
76631;SDS011;65526;48.578;-4.520;2023-07-28T13:15:04;3.70;;;0.52;;
76631;SDS011;65526;48.578;-4.520;2023-07-28T13:17:31;0.30;;;0.30;;
76631;SDS011;65526;48.578;-4.520;2023-07-28T13:19:58;1.20;;;0.50;;
76631;SDS011;65526;48.578;-4.520;2023-07-28T13:22:25;0.47;;;0.38;;
76631;SDS011;65526;48.578;-4.520;2023-07-28T13:24:52;1.45;;;0.40;;
76631;SDS011;65526;48.578;-4.520;2023-07-28T13:27:19;1.55;;;0.40;;
76631;SDS011;65526;48.578;-4.520;2023-07-28T13:29:46;0.50;;;0.40;;
76631;SDS011;65526;48.578;-4.520;2023-07-28T13:32:19;0.40;;;0.40;;
76631;SDS011;65526;48.578;-4.520;2023-07-28T13:34:49;0.95;;;0.60;;
76631;SDS011;65526;48.578;-4.520;2023-07-28T13:37:16;2.78;;;0.60;;
76631;SDS011;65526;48.578;-4.520;2023-07-28T13:39:42;1.33;;;0.47;;
76631;SDS011;65526;48.578;-4.520;2023-07-28T13:42:09;3.30;;;0.40;;
76631;SDS011;65526;48.578;-4.520;2023-07-28T13:44:38;1.88;;;0.38;;
76631;SDS011;65526;48.578;-4.520;2023-07-28T13:47:04;0.50;;;0.40;;
76631;SDS011;65526;48.578;-4.520;2023-07-28T13:49:31;0.85;;;0.35;;
76631;SDS011;65526;48.578;-4.520;2023-07-28T13:52:02;2.47;;;0.50;;
76631;SDS011;65526;48.578;-4.520;2023-07-28T13:54:29;0.75;;;0.40;;
76631;SDS011;65526;48.578;-4.520;2023-07-28T13:56:55;1.90;;;0.50;;
76631;SDS011;65526;48.578;-4.520;2023-07-28T13:59:22;1.40;;;0.38;;
76631;SDS011;65526;48.578;-4.520;2023-07-28T14:01:48;1.52;;;0.50;;
76631;SDS011;65526;48.578;-4.520;2023-07-28T14:04:16;1.33;;;0.22;;
76631;SDS011;65526;48.578;-4.520;2023-07-28T14:06:42;0.80;;;0.50;;
76631;SDS011;65526;48.578;-4.520;2023-07-28T14:09:08;0.52;;;0.50;;
76631;SDS011;65526;48.578;-4.520;2023-07-28T14:11:35;1.02;;;0.40;;
76631;SDS011;65526;48.578;-4.520;2023-07-28T14:14:01;0.75;;;0.40;;
76631;SDS011;65526;48.578;-4.520;2023-07-28T14:16:28;1.23;;;0.60;;
76631;SDS011;65526;48.578;-4.520;2023-07-28T14:18:56;1.88;;;0.75;;
76631;SDS011;65526;48.578;-4.520;2023-07-28T14:21:22;2.50;;;0.73;;
76631;SDS011;65526;48.578;-4.520;2023-07-28T14:23:49;1.08;;;0.50;;
76631;SDS011;65526;48.578;-4.520;2023-07-28T14:26:15;2.88;;;0.60;;
76631;SDS011;65526;48.578;-4.520;2023-07-28T14:28:42;0.98;;;0.70;;
76631;SDS011;65526;48.578;-4.520;2023-07-28T14:31:09;1.23;;;0.45;;
76631;SDS011;65526;48.578;-4.520;2023-07-28T14:33:35;3.40;;;0.60;;
76631;SDS011;65526;48.578;-4.520;2023-07-28T14:36:02;2.08;;;0.90;;
76631;SDS011;65526;48.578;-4.520;2023-07-28T14:38:28;4.60;;;0.60;;
76631;SDS011;65526;48.578;-4.520;2023-07-28T14:40:55;0.82;;;0.38;;
76631;SDS011;65526;48.578;-4.520;2023-07-28T14:43:21;2.83;;;0.80;;
76631;SDS011;65526;48.578;-4.520;2023-07-28T14:45:49;1.17;;;0.63;;
76631;SDS011;65526;48.578;-4.520;2023-07-28T14:48:17;3.08;;;0.50;;
76631;SDS011;65526;48.578;-4.520;2023-07-28T14:50:44;2.10;;;0.43;;
76631;SDS011;65526;48.578;-4.520;2023-07-28T14:53:29;0.73;;;0.40;;
76631;SDS011;65526;48.578;-4.520;2023-07-28T14:56:00;1.40;;;0.32;;